This is the latest recevied weather packets stored in our database for station/object R8AHC-W3. If no packets are shown the sender has not sent any weather packets the latest 10 day(s).
| Time | Temp. | Humidity | Pressure | Rain* | Wind** | Luminosity | Snow |
|---|---|---|---|---|---|---|---|
| 1777993022 | 14.44° C | 60% | 1014 hPa | - | 1.79 m/s, 292° | - | - |
| 1777985822 | 16.67° C | 49% | 1013 hPa | - | 2.68 m/s, 301° | - | - |
| 1777982222 | 16.67° C | 49% | 1012 hPa | - | 2.68 m/s, 301° | - | - |
| 1777978622 | 16.67° C | 49% | 1012 hPa | - | 2.68 m/s, 301° | - | - |
| 1777975034 | 16.67° C | 49% | 1012 hPa | - | 2.68 m/s, 301° | - | - |
| 1777967821 | 15.56° C | 53% | 1011 hPa | - | 4.47 m/s, 315° | - | - |
| 1777964222 | 15.56° C | 53% | 1012 hPa | - | 4.47 m/s, 315° | - | - |
| 1777960622 | 15.56° C | 53% | 1012 hPa | - | 4.47 m/s, 315° | - | - |
| 1777957022 | 9.44° C | 84% | 1011 hPa | - | 2.24 m/s, 294° | - | - |
| 1777953422 | 9.44° C | 84% | 1011 hPa | - | 2.24 m/s, 294° | - | - |
| 1777949823 | 9.44° C | 84% | 1011 hPa | - | 2.24 m/s, 294° | - | - |
| 1777946222 | 9.44° C | 84% | 1011 hPa | - | 2.24 m/s, 294° | - | - |
| 1777935422 | 8.33° C | 87% | 1010 hPa | - | 1.34 m/s, 297° | - | - |
| 1777931823 | 8.33° C | 87% | 1011 hPa | - | 1.34 m/s, 297° | - | - |
| 1777928222 | 8.33° C | 87% | 1010 hPa | - | 1.34 m/s, 297° | - | - |
| 1777924622 | 8.33° C | 87% | 1010 hPa | - | 1.34 m/s, 297° | - | - |
| 1777921022 | 8.33° C | 87% | 1011 hPa | - | 1.34 m/s, 297° | - | - |
| 1777913823 | 8.33° C | 88% | 1011 hPa | - | 1.34 m/s, 283° | - | - |
| 1777906622 | 11.11° C | 78% | 1011 hPa | - | 3.13 m/s, 299° | - | - |
| 1777903022 | 11.11° C | 78% | 1010 hPa | - | 3.13 m/s, 299° | - | - |
| 1777899422 | 14.44° C | 71% | 1010 hPa | - | 2.68 m/s, 296° | - | - |
| 1777895822 | 14.44° C | 71% | 1010 hPa | - | 2.68 m/s, 296° | - | - |
| 1777892222 | 14.44° C | 71% | 1009 hPa | - | 2.68 m/s, 296° | - | - |
| 1777888622 | 14.44° C | 71% | 1009 hPa | - | 2.68 m/s, 296° | - | - |
| 1777885022 | 14.44° C | 71% | 1009 hPa | - | 2.68 m/s, 296° | - | - |
* Rain since midnight (hover to see other rain measurements)
** Current wind speed in m/s (hover to see current wind gust speed)